sensor_id;sensor_type;location;lat;lon;timestamp;temperature;humidity
2112;DHT22;1062;52.538;13.400;2023-09-19T00:00:23;18.10;99.90
2112;DHT22;1062;52.538;13.400;2023-09-19T00:02:58;18.10;99.90
2112;DHT22;1062;52.538;13.400;2023-09-19T00:05:28;18.00;99.90
2112;DHT22;1062;52.538;13.400;2023-09-19T00:07:55;18.10;99.90
2112;DHT22;1062;52.538;13.400;2023-09-19T00:10:24;18.00;99.90
2112;DHT22;1062;52.538;13.400;2023-09-19T00:12:56;18.00;99.90
2112;DHT22;1062;52.538;13.400;2023-09-19T00:15:24;18.00;99.90
2112;DHT22;1062;52.538;13.400;2023-09-19T00:17:51;18.00;99.90
2112;DHT22;1062;52.538;13.400;2023-09-19T00:20:20;17.90;99.90
2112;DHT22;1062;52.538;13.400;2023-09-19T00:22:51;18.00;99.90
2112;DHT22;1062;52.538;13.400;2023-09-19T00:25:17;17.90;99.90
2112;DHT22;1062;52.538;13.400;2023-09-19T00:27:43;17.90;99.90
2112;DHT22;1062;52.538;13.400;2023-09-19T00:30:11;17.90;99.90
2112;DHT22;1062;52.538;13.400;2023-09-19T00:32:45;17.90;99.90
2112;DHT22;1062;52.538;13.400;2023-09-19T00:35:13;17.90;99.90
2112;DHT22;1062;52.538;13.400;2023-09-19T00:37:42;17.80;99.90
2112;DHT22;1062;52.538;13.400;2023-09-19T00:40:09;17.80;99.90
2112;DHT22;1062;52.538;13.400;2023-09-19T00:42:42;17.80;99.90
2112;DHT22;1062;52.538;13.400;2023-09-19T00:45:09;17.80;99.90
2112;DHT22;1062;52.538;13.400;2023-09-19T00:47:42;17.80;99.90
2112;DHT22;1062;52.538;13.400;2023-09-19T00:50:09;17.70;99.90
2112;DHT22;1062;52.538;13.400;2023-09-19T00:52:37;17.80;99.90
2112;DHT22;1062;52.538;13.400;2023-09-19T00:55:07;17.70;99.90
2112;DHT22;1062;52.538;13.400;2023-09-19T00:57:34;17.70;99.90
2112;DHT22;1062;52.538;13.400;2023-09-19T01:00:02;17.70;99.90
2112;DHT22;1062;52.538;13.400;2023-09-19T01:02:33;17.70;99.90
2112;DHT22;1062;52.538;13.400;2023-09-19T01:04:59;17.70;99.90
2112;DHT22;1062;52.538;13.400;2023-09-19T01:07:29;17.70;99.90
2112;DHT22;1062;52.538;13.400;2023-09-19T01:10:03;17.70;99.90
2112;DHT22;1062;52.538;13.400;2023-09-19T01:15:27;17.60;99.90
2112;DHT22;1062;52.538;13.400;2023-09-19T01:18:11;17.60;99.90
2112;DHT22;1062;52.538;13.400;2023-09-19T01:29:38;17.60;99.90
2112;DHT22;1062;52.538;13.400;2023-09-19T01:32:06;17.60;99.90
2112;DHT22;1062;52.538;13.400;2023-09-19T01:34:48;17.60;99.90
2112;DHT22;1062;52.538;13.400;2023-09-19T01:37:15;17.70;99.90
2112;DHT22;1062;52.538;13.400;2023-09-19T01:39:50;17.70;99.90
2112;DHT22;1062;52.538;13.400;2023-09-19T01:42:21;17.70;99.90
2112;DHT22;1062;52.538;13.400;2023-09-19T01:45:03;17.70;99.90
2112;DHT22;1062;52.538;13.400;2023-09-19T01:47:51;17.70;99.90
2112;DHT22;1062;52.538;13.400;2023-09-19T01:50:32;17.70;99.90
2112;DHT22;1062;52.538;13.400;2023-09-19T01:53:05;17.80;99.90
2112;DHT22;1062;52.538;13.400;2023-09-19T01:55:37;17.80;99.90
2112;DHT22;1062;52.538;13.400;2023-09-19T01:58:17;17.70;99.90
2112;DHT22;1062;52.538;13.400;2023-09-19T02:00:48;17.80;99.90
2112;DHT22;1062;52.538;13.400;2023-09-19T02:03:15;17.70;99.90
2112;DHT22;1062;52.538;13.400;2023-09-19T02:05:41;17.70;99.90
2112;DHT22;1062;52.538;13.400;2023-09-19T02:08:19;17.70;99.90
2112;DHT22;1062;52.538;13.400;2023-09-19T02:10:45;17.70;99.90
2112;DHT22;1062;52.538;13.400;2023-09-19T02:13:18;17.70;99.90
2112;DHT22;1062;52.538;13.400;2023-09-19T02:15:44;17.60;99.90
2112;DHT22;1062;52.538;13.400;2023-09-19T02:18:10;17.60;99.90
2112;DHT22;1062;52.538;13.400;2023-09-19T02:20:37;17.50;99.90
2112;DHT22;1062;52.538;13.400;2023-09-19T02:23:03;17.50;99.90
2112;DHT22;1062;52.538;13.400;2023-09-19T02:25:29;17.50;99.90
2112;DHT22;1062;52.538;13.400;2023-09-19T02:27:56;17.50;99.90
2112;DHT22;1062;52.538;13.400;2023-09-19T02:30:24;17.40;99.90
2112;DHT22;1062;52.538;13.400;2023-09-19T02:32:51;17.40;99.90
2112;DHT22;1062;52.538;13.400;2023-09-19T02:35:17;17.40;99.90
2112;DHT22;1062;52.538;13.400;2023-09-19T02:37:45;17.30;99.90
2112;DHT22;1062;52.538;13.400;2023-09-19T02:40:11;17.30;99.90
2112;DHT22;1062;52.538;13.400;2023-09-19T02:42:53;17.30;99.90
2112;DHT22;1062;52.538;13.400;2023-09-19T02:45:20;17.30;99.90
2112;DHT22;1062;52.538;13.400;2023-09-19T02:47:46;17.20;99.90
2112;DHT22;1062;52.538;13.400;2023-09-19T02:50:12;17.30;99.90
2112;DHT22;1062;52.538;13.400;2023-09-19T02:52:46;17.20;99.90
2112;DHT22;1062;52.538;13.400;2023-09-19T02:55:16;17.20;99.90
2112;DHT22;1062;52.538;13.400;2023-09-19T02:57:50;17.10;99.90
2112;DHT22;1062;52.538;13.400;2023-09-19T03:00:18;17.10;99.90
2112;DHT22;1062;52.538;13.400;2023-09-19T03:02:54;17.10;99.90
2112;DHT22;1062;52.538;13.400;2023-09-19T03:05:21;17.10;99.90
2112;DHT22;1062;52.538;13.400;2023-09-19T03:07:47;17.10;99.90
2112;DHT22;1062;52.538;13.400;2023-09-19T03:10:20;17.10;99.90
2112;DHT22;1062;52.538;13.400;2023-09-19T03:12:46;17.10;99.90
2112;DHT22;1062;52.538;13.400;2023-09-19T03:15:13;17.10;99.90
2112;DHT22;1062;52.538;13.400;2023-09-19T03:17:43;17.10;99.90
2112;DHT22;1062;52.538;13.400;2023-09-19T03:20:10;17.20;99.90
2112;DHT22;1062;52.538;13.400;2023-09-19T03:22:38;17.20;99.90
2112;DHT22;1062;52.538;13.400;2023-09-19T03:25:06;17.20;99.90
2112;DHT22;1062;52.538;13.400;2023-09-19T03:27:34;17.30;99.90
2112;DHT22;1062;52.538;13.400;2023-09-19T03:30:00;17.30;99.90
2112;DHT22;1062;52.538;13.400;2023-09-19T03:32:26;17.20;99.90
2112;DHT22;1062;52.538;13.400;2023-09-19T03:34:52;17.20;99.90
2112;DHT22;1062;52.538;13.400;2023-09-19T03:37:17;17.30;99.90
2112;DHT22;1062;52.538;13.400;2023-09-19T03:39:43;17.30;99.90
2112;DHT22;1062;52.538;13.400;2023-09-19T03:42:09;17.30;99.90
2112;DHT22;1062;52.538;13.400;2023-09-19T03:44:35;17.20;99.90
2112;DHT22;1062;52.538;13.400;2023-09-19T03:47:01;17.30;99.90
2112;DHT22;1062;52.538;13.400;2023-09-19T03:49:26;17.30;99.90
2112;DHT22;1062;52.538;13.400;2023-09-19T03:51:52;17.30;99.90
2112;DHT22;1062;52.538;13.400;2023-09-19T03:54:18;17.30;99.90
2112;DHT22;1062;52.538;13.400;2023-09-19T03:56:44;17.20;99.90
2112;DHT22;1062;52.538;13.400;2023-09-19T03:59:11;17.30;99.90
2112;DHT22;1062;52.538;13.400;2023-09-19T04:01:37;17.30;99.90
2112;DHT22;1062;52.538;13.400;2023-09-19T04:04:03;17.30;99.90
2112;DHT22;1062;52.538;13.400;2023-09-19T04:06:35;17.20;99.90
2112;DHT22;1062;52.538;13.400;2023-09-19T04:09:04;17.10;99.90
2112;DHT22;1062;52.538;13.400;2023-09-19T04:11:30;17.10;99.90
2112;DHT22;1062;52.538;13.400;2023-09-19T04:13:56;17.20;99.90
2112;DHT22;1062;52.538;13.400;2023-09-19T04:16:22;17.10;99.90
2112;DHT22;1062;52.538;13.400;2023-09-19T04:18:47;17.10;99.90
2112;DHT22;1062;52.538;13.400;2023-09-19T04:21:13;17.00;99.90
2112;DHT22;1062;52.538;13.400;2023-09-19T04:23:39;17.00;99.90
2112;DHT22;1062;52.538;13.400;2023-09-19T04:26:04;16.90;99.90
2112;DHT22;1062;52.538;13.400;2023-09-19T04:28:31;16.90;99.90
2112;DHT22;1062;52.538;13.400;2023-09-19T04:30:57;16.90;99.90
2112;DHT22;1062;52.538;13.400;2023-09-19T04:33:24;16.90;99.90
2112;DHT22;1062;52.538;13.400;2023-09-19T04:35:50;16.90;99.90
2112;DHT22;1062;52.538;13.400;2023-09-19T04:38:17;16.90;99.90
2112;DHT22;1062;52.538;13.400;2023-09-19T04:40:44;16.90;99.90
2112;DHT22;1062;52.538;13.400;2023-09-19T04:43:10;16.80;99.90
2112;DHT22;1062;52.538;13.400;2023-09-19T04:45:35;16.80;99.90
2112;DHT22;1062;52.538;13.400;2023-09-19T04:48:03;16.80;99.90
2112;DHT22;1062;52.538;13.400;2023-09-19T04:50:29;16.70;99.90
2112;DHT22;1062;52.538;13.400;2023-09-19T04:52:55;16.80;99.90
2112;DHT22;1062;52.538;13.400;2023-09-19T04:55:20;16.70;99.90
2112;DHT22;1062;52.538;13.400;2023-09-19T04:57:47;16.70;99.90
2112;DHT22;1062;52.538;13.400;2023-09-19T05:00:17;16.70;99.90
2112;DHT22;1062;52.538;13.400;2023-09-19T05:02:45;16.70;99.90
2112;DHT22;1062;52.538;13.400;2023-09-19T05:05:11;16.60;99.90
2112;DHT22;1062;52.538;13.400;2023-09-19T05:07:41;16.60;99.90
2112;DHT22;1062;52.538;13.400;2023-09-19T05:10:08;16.70;99.90
2112;DHT22;1062;52.538;13.400;2023-09-19T05:12:37;16.60;99.90
2112;DHT22;1062;52.538;13.400;2023-09-19T05:15:03;16.60;99.90
2112;DHT22;1062;52.538;13.400;2023-09-19T05:17:30;16.60;99.90
2112;DHT22;1062;52.538;13.400;2023-09-19T05:19:57;16.60;99.90
2112;DHT22;1062;52.538;13.400;2023-09-19T05:22:43;16.60;99.90
2112;DHT22;1062;52.538;13.400;2023-09-19T05:25:09;16.60;99.90
2112;DHT22;1062;52.538;13.400;2023-09-19T05:27:35;16.70;99.90
2112;DHT22;1062;52.538;13.400;2023-09-19T05:30:01;16.60;99.90
2112;DHT22;1062;52.538;13.400;2023-09-19T05:32:27;16.60;99.90
2112;DHT22;1062;52.538;13.400;2023-09-19T05:34:52;16.60;99.90
2112;DHT22;1062;52.538;13.400;2023-09-19T05:37:22;16.60;99.90
2112;DHT22;1062;52.538;13.400;2023-09-19T05:39:49;16.70;99.90
2112;DHT22;1062;52.538;13.400;2023-09-19T05:42:14;16.70;99.90
2112;DHT22;1062;52.538;13.400;2023-09-19T05:44:40;16.70;99.90
2112;DHT22;1062;52.538;13.400;2023-09-19T05:47:06;16.70;99.90
2112;DHT22;1062;52.538;13.400;2023-09-19T05:49:35;16.80;99.90
2112;DHT22;1062;52.538;13.400;2023-09-19T05:52:04;16.80;99.90
2112;DHT22;1062;52.538;13.400;2023-09-19T05:54:30;16.90;99.90
2112;DHT22;1062;52.538;13.400;2023-09-19T05:56:56;16.90;99.90
2112;DHT22;1062;52.538;13.400;2023-09-19T05:59:23;16.90;99.90
2112;DHT22;1062;52.538;13.400;2023-09-19T06:01:49;16.90;99.90
2112;DHT22;1062;52.538;13.400;2023-09-19T06:04:17;17.10;99.90
2112;DHT22;1062;52.538;13.400;2023-09-19T06:06:44;17.10;99.90
2112;DHT22;1062;52.538;13.400;2023-09-19T06:09:10;17.30;99.90
2112;DHT22;1062;52.538;13.400;2023-09-19T06:11:36;17.40;99.90
2112;DHT22;1062;52.538;13.400;2023-09-19T06:14:03;17.30;99.90
2112;DHT22;1062;52.538;13.400;2023-09-19T06:16:29;17.50;99.90
2112;DHT22;1062;52.538;13.400;2023-09-19T06:18:55;17.60;99.90
2112;DHT22;1062;52.538;13.400;2023-09-19T06:21:24;17.80;99.90
2112;DHT22;1062;52.538;13.400;2023-09-19T06:23:50;18.00;99.90
2112;DHT22;1062;52.538;13.400;2023-09-19T06:26:16;18.00;99.90
2112;DHT22;1062;52.538;13.400;2023-09-19T06:28:41;18.00;99.90
2112;DHT22;1062;52.538;13.400;2023-09-19T06:31:08;17.90;99.90
2112;DHT22;1062;52.538;13.400;2023-09-19T06:33:38;18.10;99.90
2112;DHT22;1062;52.538;13.400;2023-09-19T06:36:05;18.20;99.90
2112;DHT22;1062;52.538;13.400;2023-09-19T06:38:31;18.60;99.90
2112;DHT22;1062;52.538;13.400;2023-09-19T06:40:59;18.50;99.90
2112;DHT22;1062;52.538;13.400;2023-09-19T06:43:26;19.20;99.90
2112;DHT22;1062;52.538;13.400;2023-09-19T06:45:53;19.50;99.90
2112;DHT22;1062;52.538;13.400;2023-09-19T06:48:20;20.00;99.90
2112;DHT22;1062;52.538;13.400;2023-09-19T06:50:46;19.60;99.90
2112;DHT22;1062;52.538;13.400;2023-09-19T06:53:13;19.30;99.90
2112;DHT22;1062;52.538;13.400;2023-09-19T06:55:39;19.30;99.90
2112;DHT22;1062;52.538;13.400;2023-09-19T06:58:05;20.40;99.90
2112;DHT22;1062;52.538;13.400;2023-09-19T07:00:31;20.00;99.90
2112;DHT22;1062;52.538;13.400;2023-09-19T07:03:03;21.30;99.90
2112;DHT22;1062;52.538;13.400;2023-09-19T07:05:31;21.60;99.90
2112;DHT22;1062;52.538;13.400;2023-09-19T07:07:57;21.10;99.90
2112;DHT22;1062;52.538;13.400;2023-09-19T07:10:29;21.60;99.90
2112;DHT22;1062;52.538;13.400;2023-09-19T07:13:00;22.10;99.90
2112;DHT22;1062;52.538;13.400;2023-09-19T07:15:26;22.20;99.90
2112;DHT22;1062;52.538;13.400;2023-09-19T07:17:53;22.70;99.90
2112;DHT22;1062;52.538;13.400;2023-09-19T07:20:23;22.10;99.90
2112;DHT22;1062;52.538;13.400;2023-09-19T07:22:52;22.40;99.90
2112;DHT22;1062;52.538;13.400;2023-09-19T07:25:17;22.40;99.90
2112;DHT22;1062;52.538;13.400;2023-09-19T07:27:43;22.10;99.90
2112;DHT22;1062;52.538;13.400;2023-09-19T07:30:10;21.90;99.90
2112;DHT22;1062;52.538;13.400;2023-09-19T07:32:37;21.70;99.90
2112;DHT22;1062;52.538;13.400;2023-09-19T07:35:04;22.40;99.90
2112;DHT22;1062;52.538;13.400;2023-09-19T07:37:31;21.00;99.90
2112;DHT22;1062;52.538;13.400;2023-09-19T07:39:59;21.00;99.90
2112;DHT22;1062;52.538;13.400;2023-09-19T07:42:26;20.30;99.90
2112;DHT22;1062;52.538;13.400;2023-09-19T07:44:52;20.40;99.90
2112;DHT22;1062;52.538;13.400;2023-09-19T07:47:22;20.00;99.90
2112;DHT22;1062;52.538;13.400;2023-09-19T07:49:48;20.00;99.90
2112;DHT22;1062;52.538;13.400;2023-09-19T07:52:13;20.00;99.90
2112;DHT22;1062;52.538;13.400;2023-09-19T07:54:39;20.20;99.90
2112;DHT22;1062;52.538;13.400;2023-09-19T07:57:06;20.60;99.90
2112;DHT22;1062;52.538;13.400;2023-09-19T07:59:32;21.10;99.90
2112;DHT22;1062;52.538;13.400;2023-09-19T08:01:58;20.40;99.90
2112;DHT22;1062;52.538;13.400;2023-09-19T08:04:24;21.30;99.90
2112;DHT22;1062;52.538;13.400;2023-09-19T08:06:51;21.50;99.90
2112;DHT22;1062;52.538;13.400;2023-09-19T08:09:17;21.50;99.90
2112;DHT22;1062;52.538;13.400;2023-09-19T08:11:46;20.80;99.90
2112;DHT22;1062;52.538;13.400;2023-09-19T08:14:12;20.40;99.90
2112;DHT22;1062;52.538;13.400;2023-09-19T08:16:40;20.50;99.90
2112;DHT22;1062;52.538;13.400;2023-09-19T08:19:05;20.80;99.90
2112;DHT22;1062;52.538;13.400;2023-09-19T08:21:31;20.50;99.90
2112;DHT22;1062;52.538;13.400;2023-09-19T08:23:57;20.40;99.90
2112;DHT22;1062;52.538;13.400;2023-09-19T08:26:23;20.50;99.90
2112;DHT22;1062;52.538;13.400;2023-09-19T08:28:50;20.80;99.90
2112;DHT22;1062;52.538;13.400;2023-09-19T08:31:16;20.50;99.90
2112;DHT22;1062;52.538;13.400;2023-09-19T08:33:42;20.50;99.90
2112;DHT22;1062;52.538;13.400;2023-09-19T08:36:09;20.10;99.90
2112;DHT22;1062;52.538;13.400;2023-09-19T08:38:35;20.40;99.90
2112;DHT22;1062;52.538;13.400;2023-09-19T08:41:06;20.50;99.90
2112;DHT22;1062;52.538;13.400;2023-09-19T08:43:33;20.70;99.90
2112;DHT22;1062;52.538;13.400;2023-09-19T08:48:31;20.50;99.90
2112;DHT22;1062;52.538;13.400;2023-09-19T08:56:18;20.90;99.90
2112;DHT22;1062;52.538;13.400;2023-09-19T08:58:50;21.50;99.90
2112;DHT22;1062;52.538;13.400;2023-09-19T09:01:18;22.40;99.90
2112;DHT22;1062;52.538;13.400;2023-09-19T09:03:51;22.40;99.90
2112;DHT22;1062;52.538;13.400;2023-09-19T09:06:22;21.30;99.90
2112;DHT22;1062;52.538;13.400;2023-09-19T09:08:50;21.70;99.90
2112;DHT22;1062;52.538;13.400;2023-09-19T09:11:16;21.50;99.90
2112;DHT22;1062;52.538;13.400;2023-09-19T09:13:47;22.50;99.90
2112;DHT22;1062;52.538;13.400;2023-09-19T09:16:14;22.80;99.90
2112;DHT22;1062;52.538;13.400;2023-09-19T09:18:44;22.60;99.90
2112;DHT22;1062;52.538;13.400;2023-09-19T09:21:11;22.90;99.90
2112;DHT22;1062;52.538;13.400;2023-09-19T09:23:36;22.80;99.90
2112;DHT22;1062;52.538;13.400;2023-09-19T09:26:02;23.20;99.90
2112;DHT22;1062;52.538;13.400;2023-09-19T09:28:30;23.10;99.90
2112;DHT22;1062;52.538;13.400;2023-09-19T09:30:57;22.70;99.90
2112;DHT22;1062;52.538;13.400;2023-09-19T09:33:30;22.70;99.90
2112;DHT22;1062;52.538;13.400;2023-09-19T09:36:00;22.60;99.90
2112;DHT22;1062;52.538;13.400;2023-09-19T09:38:29;22.90;99.90
2112;DHT22;1062;52.538;13.400;2023-09-19T09:40:59;22.10;99.90
2112;DHT22;1062;52.538;13.400;2023-09-19T09:43:36;21.90;99.90
2112;DHT22;1062;52.538;13.400;2023-09-19T09:46:16;22.60;99.90
2112;DHT22;1062;52.538;13.400;2023-09-19T09:51:44;22.10;99.90
2112;DHT22;1062;52.538;13.400;2023-09-19T09:54:17;22.00;99.90
2112;DHT22;1062;52.538;13.400;2023-09-19T09:56:56;22.70;99.90
2112;DHT22;1062;52.538;13.400;2023-09-19T09:59:50;22.30;99.90
2112;DHT22;1062;52.538;13.400;2023-09-19T10:02:18;21.50;99.90
2112;DHT22;1062;52.538;13.400;2023-09-19T10:04:53;21.30;99.90
2112;DHT22;1062;52.538;13.400;2023-09-19T10:07:25;21.60;99.90
2112;DHT22;1062;52.538;13.400;2023-09-19T10:09:53;21.30;99.90
2112;DHT22;1062;52.538;13.400;2023-09-19T10:12:24;21.20;99.90
2112;DHT22;1062;52.538;13.400;2023-09-19T10:14:53;21.50;99.90
2112;DHT22;1062;52.538;13.400;2023-09-19T10:17:20;21.80;99.90
2112;DHT22;1062;52.538;13.400;2023-09-19T10:19:54;21.20;99.90
2112;DHT22;1062;52.538;13.400;2023-09-19T10:22:23;21.30;99.90
2112;DHT22;1062;52.538;13.400;2023-09-19T10:24:50;21.30;99.90
2112;DHT22;1062;52.538;13.400;2023-09-19T10:27:19;21.80;99.90
2112;DHT22;1062;52.538;13.400;2023-09-19T10:29:48;21.50;99.90
2112;DHT22;1062;52.538;13.400;2023-09-19T10:32:16;21.60;99.90
2112;DHT22;1062;52.538;13.400;2023-09-19T10:34:47;21.70;99.90
2112;DHT22;1062;52.538;13.400;2023-09-19T10:37:13;21.70;99.90
2112;DHT22;1062;52.538;13.400;2023-09-19T10:39:41;21.60;99.90
2112;DHT22;1062;52.538;13.400;2023-09-19T10:42:11;21.10;99.90
2112;DHT22;1062;52.538;13.400;2023-09-19T10:44:42;21.10;99.90
2112;DHT22;1062;52.538;13.400;2023-09-19T10:47:10;20.90;99.90
2112;DHT22;1062;52.538;13.400;2023-09-19T10:49:46;20.80;99.90
2112;DHT22;1062;52.538;13.400;2023-09-19T10:52:19;21.20;99.90
2112;DHT22;1062;52.538;13.400;2023-09-19T10:54:48;21.20;99.90
2112;DHT22;1062;52.538;13.400;2023-09-19T10:57:23;20.90;99.90
2112;DHT22;1062;52.538;13.400;2023-09-19T11:00:07;21.00;99.90
2112;DHT22;1062;52.538;13.400;2023-09-19T11:06:18;20.90;99.90
2112;DHT22;1062;52.538;13.400;2023-09-19T11:08:54;20.90;99.90
2112;DHT22;1062;52.538;13.400;2023-09-19T11:30:38;20.20;99.90
2112;DHT22;1062;52.538;13.400;2023-09-19T11:33:28;20.50;99.90
2112;DHT22;1062;52.538;13.400;2023-09-19T11:36:15;20.70;99.90
2112;DHT22;1062;52.538;13.400;2023-09-19T11:43:51;20.90;99.90
2112;DHT22;1062;52.538;13.400;2023-09-19T11:46:18;20.80;99.90
2112;DHT22;1062;52.538;13.400;2023-09-19T11:48:48;20.90;99.90
2112;DHT22;1062;52.538;13.400;2023-09-19T11:51:16;20.60;99.90
2112;DHT22;1062;52.538;13.400;2023-09-19T11:53:47;20.70;99.90
2112;DHT22;1062;52.538;13.400;2023-09-19T11:56:16;20.80;99.90
2112;DHT22;1062;52.538;13.400;2023-09-19T11:58:43;20.80;99.90
2112;DHT22;1062;52.538;13.400;2023-09-19T12:01:13;20.70;99.90
2112;DHT22;1062;52.538;13.400;2023-09-19T12:03:42;20.90;99.90
2112;DHT22;1062;52.538;13.400;2023-09-19T12:06:14;20.80;99.90
2112;DHT22;1062;52.538;13.400;2023-09-19T12:08:43;20.90;99.90
2112;DHT22;1062;52.538;13.400;2023-09-19T12:11:15;21.30;99.90
2112;DHT22;1062;52.538;13.400;2023-09-19T12:13:42;21.00;99.90
2112;DHT22;1062;52.538;13.400;2023-09-19T12:16:17;20.80;99.90
2112;DHT22;1062;52.538;13.400;2023-09-19T12:18:44;20.80;99.90
2112;DHT22;1062;52.538;13.400;2023-09-19T12:21:30;21.00;99.90
2112;DHT22;1062;52.538;13.400;2023-09-19T12:24:04;21.20;99.90
2112;DHT22;1062;52.538;13.400;2023-09-19T12:26:38;21.30;99.90
2112;DHT22;1062;52.538;13.400;2023-09-19T12:29:11;21.30;99.90
2112;DHT22;1062;52.538;13.400;2023-09-19T12:31:50;21.40;99.90
2112;DHT22;1062;52.538;13.400;2023-09-19T12:34:27;21.20;99.90
2112;DHT22;1062;52.538;13.400;2023-09-19T12:39:45;21.40;99.90
2112;DHT22;1062;52.538;13.400;2023-09-19T12:42:25;21.40;99.90
2112;DHT22;1062;52.538;13.400;2023-09-19T12:44:56;21.60;99.90
2112;DHT22;1062;52.538;13.400;2023-09-19T12:47:24;21.70;99.90
2112;DHT22;1062;52.538;13.400;2023-09-19T12:52:50;21.50;99.90
2112;DHT22;1062;52.538;13.400;2023-09-19T12:55:22;21.60;99.90
2112;DHT22;1062;52.538;13.400;2023-09-19T12:58:08;21.30;99.90
2112;DHT22;1062;52.538;13.400;2023-09-19T13:00:35;21.20;99.90
2112;DHT22;1062;52.538;13.400;2023-09-19T13:03:16;21.50;99.90
2112;DHT22;1062;52.538;13.400;2023-09-19T13:05:51;21.40;99.90
2112;DHT22;1062;52.538;13.400;2023-09-19T13:08:30;21.50;99.90
2112;DHT22;1062;52.538;13.400;2023-09-19T13:16:20;21.40;99.90
2112;DHT22;1062;52.538;13.400;2023-09-19T13:18:53;21.50;99.90
2112;DHT22;1062;52.538;13.400;2023-09-19T13:21:34;21.50;99.90
2112;DHT22;1062;52.538;13.400;2023-09-19T13:24:21;21.40;99.90
2112;DHT22;1062;52.538;13.400;2023-09-19T13:26:49;21.40;99.90
2112;DHT22;1062;52.538;13.400;2023-09-19T13:29:15;21.50;99.90
2112;DHT22;1062;52.538;13.400;2023-09-19T13:31:46;21.70;99.90
2112;DHT22;1062;52.538;13.400;2023-09-19T13:34:12;21.70;99.90
2112;DHT22;1062;52.538;13.400;2023-09-19T13:36:39;21.60;99.90
2112;DHT22;1062;52.538;13.400;2023-09-19T13:39:05;21.40;99.90
2112;DHT22;1062;52.538;13.400;2023-09-19T13:41:32;21.40;99.90
2112;DHT22;1062;52.538;13.400;2023-09-19T13:43:58;21.60;99.90
2112;DHT22;1062;52.538;13.400;2023-09-19T13:46:23;21.50;99.90
2112;DHT22;1062;52.538;13.400;2023-09-19T13:48:51;21.50;99.90
2112;DHT22;1062;52.538;13.400;2023-09-19T13:51:20;21.50;99.90
2112;DHT22;1062;52.538;13.400;2023-09-19T13:53:51;21.60;99.90
2112;DHT22;1062;52.538;13.400;2023-09-19T13:56:16;21.60;99.90
2112;DHT22;1062;52.538;13.400;2023-09-19T13:58:42;21.30;99.90
2112;DHT22;1062;52.538;13.400;2023-09-19T14:01:08;21.20;99.90
2112;DHT22;1062;52.538;13.400;2023-09-19T14:03:38;21.10;99.90
2112;DHT22;1062;52.538;13.400;2023-09-19T14:06:04;21.20;99.90
2112;DHT22;1062;52.538;13.400;2023-09-19T14:08:30;21.20;99.90
2112;DHT22;1062;52.538;13.400;2023-09-19T14:10:56;21.20;99.90
2112;DHT22;1062;52.538;13.400;2023-09-19T14:13:22;21.30;99.90
2112;DHT22;1062;52.538;13.400;2023-09-19T14:15:47;21.40;99.90
2112;DHT22;1062;52.538;13.400;2023-09-19T14:18:13;21.20;99.90
2112;DHT22;1062;52.538;13.400;2023-09-19T14:20:39;21.30;99.90
2112;DHT22;1062;52.538;13.400;2023-09-19T14:23:07;21.30;99.90
2112;DHT22;1062;52.538;13.400;2023-09-19T14:25:36;21.30;99.90
2112;DHT22;1062;52.538;13.400;2023-09-19T14:28:04;21.30;99.90
2112;DHT22;1062;52.538;13.400;2023-09-19T14:30:30;21.50;99.90
2112;DHT22;1062;52.538;13.400;2023-09-19T14:32:57;21.40;99.90
2112;DHT22;1062;52.538;13.400;2023-09-19T14:35:23;21.20;99.90
2112;DHT22;1062;52.538;13.400;2023-09-19T14:37:49;21.20;99.90
2112;DHT22;1062;52.538;13.400;2023-09-19T14:40:14;21.10;99.90
2112;DHT22;1062;52.538;13.400;2023-09-19T14:42:43;21.00;99.90
2112;DHT22;1062;52.538;13.400;2023-09-19T14:45:09;21.00;99.90
2112;DHT22;1062;52.538;13.400;2023-09-19T14:47:35;21.00;99.90
2112;DHT22;1062;52.538;13.400;2023-09-19T14:50:02;20.90;99.90
2112;DHT22;1062;52.538;13.400;2023-09-19T14:52:32;20.80;99.90
2112;DHT22;1062;52.538;13.400;2023-09-19T14:54:59;20.70;99.90
2112;DHT22;1062;52.538;13.400;2023-09-19T14:57:24;20.70;99.90
2112;DHT22;1062;52.538;13.400;2023-09-19T14:59:51;20.90;99.90
2112;DHT22;1062;52.538;13.400;2023-09-19T15:02:17;20.90;99.90
2112;DHT22;1062;52.538;13.400;2023-09-19T15:04:43;20.70;99.90
2112;DHT22;1062;52.538;13.400;2023-09-19T15:07:10;20.80;99.90
2112;DHT22;1062;52.538;13.400;2023-09-19T15:09:35;20.80;99.90
2112;DHT22;1062;52.538;13.400;2023-09-19T15:12:01;20.80;99.90
2112;DHT22;1062;52.538;13.400;2023-09-19T15:14:27;20.80;99.90
2112;DHT22;1062;52.538;13.400;2023-09-19T15:16:55;20.70;99.90
2112;DHT22;1062;52.538;13.400;2023-09-19T15:19:21;20.80;99.90
2112;DHT22;1062;52.538;13.400;2023-09-19T15:21:48;20.70;99.90
2112;DHT22;1062;52.538;13.400;2023-09-19T15:24:13;20.70;99.90
2112;DHT22;1062;52.538;13.400;2023-09-19T15:26:40;20.60;99.90
2112;DHT22;1062;52.538;13.400;2023-09-19T15:29:06;20.70;99.90
2112;DHT22;1062;52.538;13.400;2023-09-19T15:31:33;20.70;99.90
2112;DHT22;1062;52.538;13.400;2023-09-19T15:33:58;20.50;99.90
2112;DHT22;1062;52.538;13.400;2023-09-19T15:36:24;20.60;99.90
2112;DHT22;1062;52.538;13.400;2023-09-19T15:38:57;20.60;99.90
2112;DHT22;1062;52.538;13.400;2023-09-19T15:41:27;20.70;99.90
2112;DHT22;1062;52.538;13.400;2023-09-19T15:43:54;20.70;99.90
2112;DHT22;1062;52.538;13.400;2023-09-19T15:46:20;20.50;99.90
2112;DHT22;1062;52.538;13.400;2023-09-19T15:48:46;20.40;99.90
2112;DHT22;1062;52.538;13.400;2023-09-19T15:51:13;20.50;99.90
2112;DHT22;1062;52.538;13.400;2023-09-19T15:56:10;20.80;99.90
2112;DHT22;1062;52.538;13.400;2023-09-19T15:58:40;20.90;99.90
2112;DHT22;1062;52.538;13.400;2023-09-19T16:01:06;20.80;99.90
2112;DHT22;1062;52.538;13.400;2023-09-19T16:03:41;20.80;99.90
2112;DHT22;1062;52.538;13.400;2023-09-19T16:06:13;20.60;99.90
2112;DHT22;1062;52.538;13.400;2023-09-19T16:08:46;20.60;99.90
2112;DHT22;1062;52.538;13.400;2023-09-19T16:11:12;20.60;99.90
2112;DHT22;1062;52.538;13.400;2023-09-19T16:13:39;20.50;99.90
2112;DHT22;1062;52.538;13.400;2023-09-19T16:16:07;20.60;99.90
2112;DHT22;1062;52.538;13.400;2023-09-19T16:18:33;20.40;99.90
2112;DHT22;1062;52.538;13.400;2023-09-19T16:21:06;20.40;99.90
2112;DHT22;1062;52.538;13.400;2023-09-19T16:23:36;20.50;99.90
2112;DHT22;1062;52.538;13.400;2023-09-19T16:26:05;20.70;99.90
2112;DHT22;1062;52.538;13.400;2023-09-19T16:28:32;20.50;99.90
2112;DHT22;1062;52.538;13.400;2023-09-19T16:31:02;20.40;99.90
2112;DHT22;1062;52.538;13.400;2023-09-19T16:33:29;20.20;99.90
2112;DHT22;1062;52.538;13.400;2023-09-19T16:35:54;20.10;99.90
2112;DHT22;1062;52.538;13.400;2023-09-19T16:38:21;19.90;99.90
2112;DHT22;1062;52.538;13.400;2023-09-19T16:40:54;19.90;99.90
2112;DHT22;1062;52.538;13.400;2023-09-19T16:43:22;19.80;99.90
2112;DHT22;1062;52.538;13.400;2023-09-19T16:45:58;19.80;99.90
2112;DHT22;1062;52.538;13.400;2023-09-19T16:48:24;19.70;99.90
2112;DHT22;1062;52.538;13.400;2023-09-19T16:50:54;19.80;99.90
2112;DHT22;1062;52.538;13.400;2023-09-19T16:53:20;19.60;99.90
2112;DHT22;1062;52.538;13.400;2023-09-19T16:55:47;19.60;99.90
2112;DHT22;1062;52.538;13.400;2023-09-19T16:58:13;19.40;99.90